Tuesday, January 27, 2015
08:22 UTC
  |  Log In   |  Register Free
Airport Search:

Foothills Regional Airport
(KMRN)

Foothills Regional Airport Diagram
No Airport Diagram Available

FAA data valid effective January 08, 2015 - March 05, 2015 (unless otherwise noted).

 
 
 
 
 
 
 
 
 
 
 
 
 
 

Current Aviation Weather for Foothills Regional Airport (KMRN)

The most recent METAR observation for KMRN was updated at: 0715
METAR Summary (Translated METAR)
KMRN
270655Z AUTO 32009KT 10SM CLR 00/M08 A2981 RMK AO2 T00001076
KHKY
270653Z AUTO 31010KT 10SM CLR M01/M08 A2975 RMK AO2 SLP069 T10061078 $
(11.8 nm SE from KMRN)
KFQD
270655Z AUTO 00000KT 10SM CLR M01/M06 A2979 RMK AO2 T10061062
(28.3 nm SW from KMRN)
TAF Summary (Translated TAF)
KHKY
(11.8 nm SE from KMRN)
270520Z 2706/2806 32003KT P6SM BKN180 FM271300 32007G15KT P6SM BKN180 FM271800 32009G17KT P6SM SCT180
  Airport Weather Conditions for KMRN

 Current Weather at MRN
32° F
Fair
Northwest winds at 10.4 mph
MRN NOAA Radar

Pressure: 29.81 in
Humidity: 57%
Wind: Northwest at 10.4 MPH (9 KT)
Dew Point: 18.3°F
Visibility: 10.00 mi


Airport Weather Forecast for KMRN

Translated METAR and TAF for KMRN
Translated METAR for KMRN (0822 UTC 27 January 2015)
found at http://aviationweather.gov/adds/metars/
 
METAR text: KMRN 270815Z AUTO 33005KT 10SM CLR 00/M07 A2981 RMK AO2 T10011075
Conditions at: KMRN (MORGANTON/LENOIR, NC, US) observed 0815 UTC 27 January 2015
Temperature: -0.1°C (32°F)
Dewpoint: -7.5°C (18°F) [RH = 57%]
Pressure (altimeter): 29.81 inches Hg (1009.6 mb)
Winds: from the NNW (330 degrees) at 6 MPH (5 knots; 2.6 m/s)
Visibility: 10 or more miles (16+ km)
Ceiling: at least 12,000 feet AGL
Clouds: sky clear below 12,000 feet AGL
Weather: automated observation with no human augmentation;
there may or may not be significant weather present at this time
Translated TAF for KMRN

There is no translated TAF available for this airport

Find All Airport Services Find A Hotel Find A Rental Car Find A Golf Course Find A Restaurant $100 Hamburger



FBO's on the Field
FBO Company Facility Photos Services Transportation Aviation Fuel Prices: Prices include tax
Catering Weather Repair Courtesy Rental Type 100LL JetA JetA+ MOGAS 8087
 
Foothills Aviation

This FBO has not yet been rated
FS:Shell
Last Updated: Jan-20
Login to update fuel prices
SS:
Contact Foothills AviationMore FBO Information
 
Add another FBO Facility Photos Catering Weather Repair Courtesy Rental Type 100LL JetA JetA+ MOGAS 8087
Services Transportation Aviation Fuel Prices: Prices include tax


model-print
model-print
model-print
model-print